Time;durP1;ratioP1;P1;durP2;ratioP2;P2;SDS_P1;SDS_P2;PMS_P1;PMS_P2;Temp;Humidity;BMP_temperature;BMP_pressure;BME280_temperature;BME280_humidity;BME280_pressure;Samples;Min_cycle;Max_cycle;Signal;HPM_P1;HPM_P2
2023/05/19 00:00:53;;;;;;;;;;;;;;;20.22;42.28;102756.88;5032295;28;19917;-70
2023/05/19 00:03:20;;;;;;;;;;;;;;;20.21;42.33;102758.69;5053279;28;19923;-70
2023/05/19 00:05:45;;;;;;;;;;;;;;;20.20;42.28;102764.22;5050616;28;20435;-70
2023/05/19 00:08:11;;;;;;;;;;;;;;;20.18;42.19;102760.81;5037468;28;19913;-70
2023/05/19 00:10:36;;;;;;;;;;;;;;;20.16;42.45;102750.13;5051470;28;19920;-70
2023/05/19 00:13:01;;;;;;;;;;;;;;;20.16;42.39;102755.53;5055289;28;19940;-70
2023/05/19 00:15:27;;;;;;;;;;;;;;;20.15;42.31;102753.81;5055494;28;19917;-70
2023/05/19 00:17:54;;;;;;;;;;;;;;;20.14;42.50;102751.25;5050756;28;19917;-70
2023/05/19 00:20:19;;;;;;;;;;;;;;;20.12;42.42;102756.78;5052722;28;19952;-70
2023/05/19 00:22:44;;;;;;;;;;;;;;;20.12;42.21;102756.78;5052987;28;19928;-69
2023/05/19 00:25:09;;;;;;;;;;;;;;;20.12;42.53;102758.63;5035538;28;20007;-70
2023/05/19 00:27:35;;;;;;;;;;;;;;;20.10;42.39;102760.63;5034697;28;19924;-70
2023/05/19 00:30:00;;;;;;;;;;;;;;;20.08;42.41;102759.88;5053588;28;19951;-70
2023/05/19 00:32:25;;;;;;;;;;;;;;;20.08;42.40;102759.88;5050335;28;20018;-69
2023/05/19 00:34:50;;;;;;;;;;;;;;;20.07;42.39;102760.88;5051241;28;19916;-70
2023/05/19 00:37:16;;;;;;;;;;;;;;;20.05;42.33;102752.03;5051096;28;20358;-70
2023/05/19 00:39:41;;;;;;;;;;;;;;;20.05;42.17;102743.94;5045257;28;19921;-70
2023/05/19 00:42:06;;;;;;;;;;;;;;;20.02;42.07;102745.06;5057239;28;19972;-70
2023/05/19 00:44:31;;;;;;;;;;;;;;;20.03;42.39;102745.91;5030874;28;19913;-70
2023/05/19 00:46:56;;;;;;;;;;;;;;;20.01;42.19;102737.97;5054479;28;19912;-70
2023/05/19 00:49:21;;;;;;;;;;;;;;;19.99;42.43;102731.81;5039640;28;19925;-70
2023/05/19 00:51:47;;;;;;;;;;;;;;;19.97;42.38;102731.97;5050015;28;20466;-70
2023/05/19 00:54:12;;;;;;;;;;;;;;;19.97;42.14;102729.25;5044788;28;20028;-70
2023/05/19 00:56:37;;;;;;;;;;;;;;;19.96;42.37;102732.06;5035440;28;19913;-70
2023/05/19 00:59:02;;;;;;;;;;;;;;;19.95;42.17;102730.38;5047516;28;19927;-70
2023/05/19 01:01:27;;;;;;;;;;;;;;;19.93;42.42;102725.13;5033395;28;19925;-70
2023/05/19 01:03:55;;;;;;;;;;;;;;;19.93;42.19;102732.34;5035375;28;19913;-70
2023/05/19 01:06:20;;;;;;;;;;;;;;;19.92;42.17;102725.22;5032401;28;19920;-70
2023/05/19 01:08:46;;;;;;;;;;;;;;;19.91;42.13;102729.78;5055828;28;19912;-70
2023/05/19 01:11:11;;;;;;;;;;;;;;;19.91;42.19;102731.63;5050830;28;20382;-70
2023/05/19 01:13:36;;;;;;;;;;;;;;;19.89;42.35;102729.06;5051729;28;19968;-70
2023/05/19 01:16:01;;;;;;;;;;;;;;;19.87;42.39;102724.78;5052476;28;20005;-70
2023/05/19 01:18:45;;;;;;;;;;;;;;;19.87;42.20;102730.16;5053176;28;20011;-70
2023/05/19 01:21:10;;;;;;;;;;;;;;;19.85;42.41;102726.75;5033610;28;19939;-69
2023/05/19 01:23:46;;;;;;;;;;;;;;;19.84;42.47;102730.44;5049324;28;20016;-70
2023/05/19 01:26:30;;;;;;;;;;;;;;;19.84;42.30;102727.75;5048344;28;19948;-70
2023/05/19 01:29:13;;;;;;;;;;;;;;;19.83;42.19;102726.00;5051181;28;19917;-69
2023/05/19 01:31:38;;;;;;;;;;;;;;;19.81;42.05;102726.16;5032108;28;19917;-70
2023/05/19 01:34:04;;;;;;;;;;;;;;;19.80;42.11;102735.25;5048383;28;19924;-70
2023/05/19 01:36:29;;;;;;;;;;;;;;;19.79;42.05;102730.81;5039488;28;19914;-70
2023/05/19 01:38:55;;;;;;;;;;;;;;;19.78;42.33;102734.50;5041889;28;19921;-70
2023/05/19 01:41:21;;;;;;;;;;;;;;;19.77;42.43;102735.50;5053905;28;19989;-69
2023/05/19 01:43:46;;;;;;;;;;;;;;;19.76;42.20;102731.09;5045140;28;19919;-70
2023/05/19 01:46:11;;;;;;;;;;;;;;;19.75;42.30;102736.59;5048941;28;19991;-70
2023/05/19 01:48:36;;;;;;;;;;;;;;;19.72;42.09;102727.78;5035951;28;19917;-70
2023/05/19 01:51:02;;;;;;;;;;;;;;;19.72;42.08;102722.41;5053843;28;19913;-69
2023/05/19 01:53:27;;;;;;;;;;;;;;;19.71;42.30;102720.69;5048013;28;20397;-70
2023/05/19 01:55:53;;;;;;;;;;;;;;;19.70;42.28;102718.09;5052850;28;20370;-70
2023/05/19 01:58:33;;;;;;;;;;;;;;;19.70;42.08;102726.19;5050977;28;19985;-70
2023/05/19 02:01:01;;;;;;;;;;;;;;;19.68;42.18;102715.53;5049023;28;19924;-70
2023/05/19 02:03:39;;;;;;;;;;;;;;;19.67;42.33;102715.69;5053959;28;19920;-69
2023/05/19 02:06:22;;;;;;;;;;;;;;;19.66;42.14;102716.66;5042104;28;19948;-70
2023/05/19 02:09:07;;;;;;;;;;;;;;;19.65;42.18;102709.56;5055881;28;20374;-69
2023/05/19 02:11:32;;;;;;;;;;;;;;;19.63;42.09;102707.00;5049593;28;19917;-70
2023/05/19 02:13:57;;;;;;;;;;;;;;;19.63;42.13;102711.53;5048723;28;19928;-70
2023/05/19 02:16:24;;;;;;;;;;;;;;;19.61;42.00;102708.94;5034337;28;19952;-70
2023/05/19 02:18:50;;;;;;;;;;;;;;;19.61;41.92;102711.66;5038439;28;19921;-70
2023/05/19 02:21:15;;;;;;;;;;;;;;;19.60;42.07;102725.25;5049123;28;19955;-70
2023/05/19 02:23:41;;;;;;;;;;;;;;;19.59;42.01;102710.91;5048550;28;19938;-70
2023/05/19 02:26:07;;;;;;;;;;;;;;;19.58;42.19;102705.63;5050271;28;19968;-69
2023/05/19 02:28:32;;;;;;;;;;;;;;;19.57;42.21;102709.31;5048119;28;19914;-70
2023/05/19 02:30:58;;;;;;;;;;;;;;;19.56;42.23;102705.75;5053386;28;19913;-70
2023/05/19 02:33:24;;;;;;;;;;;;;;;19.55;42.19;102695.94;5048547;28;20027;-70
2023/05/19 02:35:49;;;;;;;;;;;;;;;19.54;42.26;102702.34;5056679;28;19924;-70
2023/05/19 02:38:15;;;;;;;;;;;;;;;19.53;42.00;102705.16;5055222;28;19913;-70
2023/05/19 02:40:40;;;;;;;;;;;;;;;19.53;42.02;102697.06;5051884;28;19988;-70
2023/05/19 02:43:06;;;;;;;;;;;;;;;19.51;42.29;102696.34;5055317;28;19936;-69
2023/05/19 02:45:32;;;;;;;;;;;;;;;19.49;42.04;102688.34;5052528;28;19919;-70
2023/05/19 02:47:57;;;;;;;;;;;;;;;19.48;42.28;102689.34;5054333;28;20011;-69
2023/05/19 02:50:23;;;;;;;;;;;;;;;19.48;42.02;102689.34;5051937;28;19917;-69
2023/05/19 02:52:48;;;;;;;;;;;;;;;19.47;42.01;102695.75;5054378;28;19937;-70
2023/05/19 02:55:15;;;;;;;;;;;;;;;19.45;42.21;102682.41;5051977;28;19913;-69
2023/05/19 02:57:41;;;;;;;;;;;;;;;19.44;41.92;102686.06;5055054;28;19972;-70
2023/05/19 03:00:06;;;;;;;;;;;;;;;19.43;41.93;102681.66;5044688;28;19917;-69
2023/05/19 03:02:32;;;;;;;;;;;;;;;19.42;42.08;102682.66;5043284;28;19913;-70
2023/05/19 03:05:00;;;;;;;;;;;;;;;19.41;42.24;102677.34;5057086;28;19913;-69
2023/05/19 03:07:25;;;;;;;;;;;;;;;19.41;42.12;102680.06;5054270;28;19924;-70
2023/05/19 03:09:51;;;;;;;;;;;;;;;19.40;42.25;102683.75;5054921;28;19918;-70
2023/05/19 03:12:16;;;;;;;;;;;;;;;19.38;42.07;102688.44;5050222;28;19913;-69
2023/05/19 03:14:42;;;;;;;;;;;;;;;19.38;41.94;102683.03;5051382;28;19928;-70
2023/05/19 03:17:08;;;;;;;;;;;;;;;19.37;41.94;102678.59;5054666;28;19921;-69
2023/05/19 03:19:34;;;;;;;;;;;;;;;19.35;42.16;102684.13;5052502;28;19921;-70
2023/05/19 03:21:59;;;;;;;;;;;;;;;19.34;41.91;102684.28;5051855;28;19919;-69
2023/05/19 03:24:24;;;;;;;;;;;;;;;19.33;42.19;102683.41;5052140;28;19917;-69
2023/05/19 03:26:50;;;;;;;;;;;;;;;19.32;42.16;102688.91;5053382;28;19917;-70
2023/05/19 03:29:15;;;;;;;;;;;;;;;19.31;42.01;102689.91;5050612;28;19939;-70
2023/05/19 03:31:40;;;;;;;;;;;;;;;19.29;42.01;102698.16;5056040;28;19914;-70
2023/05/19 03:34:05;;;;;;;;;;;;;;;19.30;42.04;102696.31;5049172;28;20296;-70
2023/05/19 03:36:31;;;;;;;;;;;;;;;19.28;42.20;102693.72;5058634;28;19914;-69
2023/05/19 03:38:56;;;;;;;;;;;;;;;19.28;42.15;102690.16;5051860;28;19918;-70
2023/05/19 03:41:21;;;;;;;;;;;;;;;19.27;41.94;102692.00;5050763;28;19952;-70
2023/05/19 03:43:46;;;;;;;;;;;;;;;19.26;42.00;102690.28;5053260;28;19913;-69
2023/05/19 03:46:12;;;;;;;;;;;;;;;19.25;42.13;102694.00;5050886;28;19920;-70
2023/05/19 03:48:37;;;;;;;;;;;;;;;19.23;42.08;102688.69;5049631;28;19925;-70
2023/05/19 03:51:03;;;;;;;;;;;;;;;19.23;42.10;102687.84;5057026;28;20362;-70
2023/05/19 03:53:29;;;;;;;;;;;;;;;19.21;42.06;102687.13;5054580;28;19936;-70
2023/05/19 03:55:55;;;;;;;;;;;;;;;19.21;41.99;102689.84;5046358;28;19920;-70
2023/05/19 03:58:20;;;;;;;;;;;;;;;19.20;42.11;102694.38;5039451;28;19917;-70
2023/05/19 04:00:45;;;;;;;;;;;;;;;19.19;41.99;102691.78;5051784;28;19964;-69
2023/05/19 04:03:10;;;;;;;;;;;;;;;19.19;42.03;102691.78;5053765;28;20273;-69
2023/05/19 04:05:36;;;;;;;;;;;;;;;19.17;41.92;102697.31;5054315;28;19913;-69
2023/05/19 04:08:01;;;;;;;;;;;;;;;19.17;42.20;102702.72;5050660;28;19913;-69
2023/05/19 04:10:26;;;;;;;;;;;;;;;19.16;41.94;102698.31;5052880;28;20035;-69
2023/05/19 04:12:51;;;;;;;;;;;;;;;19.16;42.09;102700.16;5049255;28;19931;-69
2023/05/19 04:15:16;;;;;;;;;;;;;;;19.14;42.02;102707.50;5050401;28;20369;-69
2023/05/19 04:17:41;;;;;;;;;;;;;;;19.13;41.99;102700.41;5036764;28;19939;-69
2023/05/19 04:20:07;;;;;;;;;;;;;;;19.13;42.00;102701.25;5053931;28;19929;-69
2023/05/19 04:22:32;;;;;;;;;;;;;;;19.12;42.16;102699.53;5047946;28;19913;-70
2023/05/19 04:24:58;;;;;;;;;;;;;;;19.12;42.33;102704.94;5054844;28;20012;-70
2023/05/19 04:27:23;;;;;;;;;;;;;;;19.12;42.23;102701.38;5053950;28;19959;-70
2023/05/19 04:29:48;;;;;;;;;;;;;;;18.58;42.23;102610.56;5046692;28;19988;-69
2023/05/19 04:32:16;;;;;;;;;;;;;;;19.11;42.39;102700.50;5055681;28;19974;-72
2023/05/19 04:34:44;;;;;;;;;;;;;;;19.12;42.51;102701.38;5048563;28;19913;-70
2023/05/19 04:37:09;;;;;;;;;;;;;;;19.11;42.74;102695.09;5052211;28;19917;-69
2023/05/19 04:39:37;;;;;;;;;;;;;;;19.11;42.60;102697.81;5035907;28;19931;-69
2023/05/19 04:42:02;;;;;;;;;;;;;;;19.12;43.00;102696.00;5057937;28;20273;-69
2023/05/19 04:44:28;;;;;;;;;;;;;;;19.12;42.99;102698.69;5059926;28;19984;-70
2023/05/19 04:46:56;;;;;;;;;;;;;;;19.12;43.06;102696.00;5055759;28;19924;-69
2023/05/19 04:49:23;;;;;;;;;;;;;;;19.12;43.12;102687.91;5043185;28;19928;-71
2023/05/19 04:51:51;;;;;;;;;;;;;;;19.12;43.15;102691.44;5052144;28;19944;-70
2023/05/19 04:54:16;;;;;;;;;;;;;;;19.11;43.37;102687.03;5053812;28;19913;-73
2023/05/19 04:56:42;;;;;;;;;;;;;;;19.12;43.43;102690.59;5049846;28;19994;-73
2023/05/19 04:59:08;;;;;;;;;;;;;;;19.12;43.23;102688.75;5057894;28;20334;-70
2023/05/19 05:01:33;;;;;;;;;;;;;;;19.13;43.36;102692.31;5048706;28;19914;-71
2023/05/19 05:04:01;;;;;;;;;;;;;;;19.13;43.17;102690.47;5053108;28;19916;-70
2023/05/19 05:06:27;;;;;;;;;;;;;;;19.12;43.36;102690.59;5054800;28;19984;-69
2023/05/19 05:08:52;;;;;;;;;;;;;;;19.12;43.39;102696.00;5049674;28;19921;-69
2023/05/19 05:11:17;;;;;;;;;;;;;;;19.12;43.43;102696.00;5051429;28;20405;-69
2023/05/19 05:13:43;;;;;;;;;;;;;;;19.12;43.36;102698.69;5050726;28;19944;-69
2023/05/19 05:16:08;;;;;;;;;;;;;;;19.13;43.54;102697.69;5049137;28;19972;-69
2023/05/19 05:18:34;;;;;;;;;;;;;;;19.12;43.56;102699.53;5048841;28;19972;-69
2023/05/19 05:20:59;;;;;;;;;;;;;;;19.12;43.72;102696.00;5054886;28;19981;-69
2023/05/19 05:23:25;;;;;;;;;;;;;;;19.12;43.71;102702.25;5048138;28;19917;-69
2023/05/19 05:25:50;;;;;;;;;;;;;;;19.12;43.70;102698.69;5056978;28;19972;-69
2023/05/19 05:28:15;;;;;;;;;;;;;;;19.12;43.74;102698.69;5050928;28;20321;-69
2023/05/19 05:30:40;;;;;;;;;;;;;;;19.12;43.76;102706.78;5051531;28;19913;-69
2023/05/19 05:33:06;;;;;;;;;;;;;;;19.12;43.68;102704.94;5052623;28;19916;-69
2023/05/19 05:35:31;;;;;;;;;;;;;;;19.11;43.88;102703.19;5057274;28;19924;-69
2023/05/19 05:37:56;;;;;;;;;;;;;;;19.11;43.62;102705.88;5044298;28;19917;-68
2023/05/19 05:40:21;;;;;;;;;;;;;;;19.11;43.72;102699.66;5030498;28;19967;-71
2023/05/19 05:42:46;;;;;;;;;;;;;;;19.10;43.87;102698.78;5033802;28;19928;-69
2023/05/19 05:45:12;;;;;;;;;;;;;;;19.11;43.57;102710.44;5045574;28;19920;-69
2023/05/19 05:47:38;;;;;;;;;;;;;;;19.10;43.75;102709.56;5052958;28;19917;-68
2023/05/19 05:50:04;;;;;;;;;;;;;;;19.10;43.55;102706.88;5051034;28;19916;-69
2023/05/19 05:52:29;;;;;;;;;;;;;;;19.10;43.76;102704.19;5053509;28;19913;-69
2023/05/19 05:54:55;;;;;;;;;;;;;;;19.11;43.62;102710.44;5052031;28;19925;-70
2023/05/19 05:57:20;;;;;;;;;;;;;;;19.09;43.57;102704.31;5049403;28;20290;-70
2023/05/19 05:59:46;;;;;;;;;;;;;;;19.10;43.77;102706.03;5053725;28;19921;-69
2023/05/19 06:02:11;;;;;;;;;;;;;;;19.08;43.77;102703.47;5046736;28;19914;-70
2023/05/19 06:04:36;;;;;;;;;;;;;;;19.08;43.53;102700.78;5035934;28;19927;-71
2023/05/19 06:07:01;;;;;;;;;;;;;;;19.09;43.95;102696.25;5054022;28;19924;-70
2023/05/19 06:09:28;;;;;;;;;;;;;;;19.09;43.58;102701.63;5049718;28;19963;-70
2023/05/19 06:11:53;;;;;;;;;;;;;;;19.08;43.48;102708.88;5059875;28;19921;-69
2023/05/19 06:14:18;;;;;;;;;;;;;;;19.08;43.84;102703.47;5058943;28;20000;-70
2023/05/19 06:16:44;;;;;;;;;;;;;;;19.08;43.85;102705.31;5056716;28;19913;-69
2023/05/19 06:19:09;;;;;;;;;;;;;;;19.07;43.66;102700.88;5060839;28;19917;-69
2023/05/19 06:21:34;;;;;;;;;;;;;;;19.07;43.68;102703.56;5041228;28;19967;-69
2023/05/19 06:23:59;;;;;;;;;;;;;;;19.08;43.52;102708.00;5059209;28;20007;-70
2023/05/19 06:26:25;;;;;;;;;;;;;;;19.07;43.84;102699.03;5060487;28;19921;-70
2023/05/19 06:28:51;;;;;;;;;;;;;;;19.08;43.88;102703.47;5054942;28;19920;-70
2023/05/19 06:31:16;;;;;;;;;;;;;;;19.07;43.66;102703.56;5056686;28;19917;-71
2023/05/19 06:33:41;;;;;;;;;;;;;;;19.08;43.70;102702.63;5038472;28;19917;-69
2023/05/19 06:36:08;;;;;;;;;;;;;;;19.08;43.64;102708.00;5057235;28;19995;-69
2023/05/19 06:38:33;;;;;;;;;;;;;;;19.08;43.67;102702.63;5056912;28;19959;-69
2023/05/19 06:40:59;;;;;;;;;;;;;;;19.07;43.88;102708.97;5057565;28;19916;-69
2023/05/19 06:43:24;;;;;;;;;;;;;;;19.07;43.92;102704.44;5055098;28;20024;-69
2023/05/19 06:45:49;;;;;;;;;;;;;;;19.09;43.90;102704.31;5055582;28;19913;-69
2023/05/19 06:48:14;;;;;;;;;;;;;;;19.08;43.93;102702.63;5060532;28;19959;-69
2023/05/19 06:50:40;;;;;;;;;;;;;;;19.09;43.80;102707.03;5056303;28;20290;-69
2023/05/19 06:53:05;;;;;;;;;;;;;;;19.09;43.89;102704.31;5058751;28;19939;-69
2023/05/19 06:55:31;;;;;;;;;;;;;;;19.10;43.72;102706.03;5057050;28;19928;-69
2023/05/19 06:57:56;;;;;;;;;;;;;;;19.10;43.86;102708.72;5056361;28;19917;-69
2023/05/19 07:00:21;;;;;;;;;;;;;;;19.10;44.03;102709.56;5056349;28;19948;-69
2023/05/19 07:02:46;;;;;;;;;;;;;;;19.11;43.84;102710.44;5054857;28;19913;-69
2023/05/19 07:05:11;;;;;;;;;;;;;;;19.11;43.71;102705.88;5053396;28;19955;-69
2023/05/19 07:07:37;;;;;;;;;;;;;;;19.10;43.78;102701.50;5051210;28;19922;-69
2023/05/19 07:10:02;;;;;;;;;;;;;;;19.12;43.65;102701.38;5055996;28;19960;-69
2023/05/19 07:12:27;;;;;;;;;;;;;;;19.12;43.76;102701.38;5055529;28;19912;-69
2023/05/19 07:14:52;;;;;;;;;;;;;;;19.12;43.84;102699.53;5055941;28;20609;-69
2023/05/19 07:17:17;;;;;;;;;;;;;;;19.12;43.71;102693.28;5053550;28;19957;-68
2023/05/19 07:19:43;;;;;;;;;;;;;;;19.13;43.86;102701.25;5057916;28;19939;-68
2023/05/19 07:22:08;;;;;;;;;;;;;;;19.14;43.76;102704.78;5056347;28;19917;-69
2023/05/19 07:24:33;;;;;;;;;;;;;;;19.14;43.62;102700.25;5051659;28;19912;-69
2023/05/19 07:26:58;;;;;;;;;;;;;;;19.14;43.71;102702.09;5053818;28;19939;-68
2023/05/19 07:29:23;;;;;;;;;;;;;;;19.15;43.61;102695.72;5050102;28;20468;-69
2023/05/19 07:31:52;;;;;;;;;;;;;;;19.15;43.68;102696.56;5051974;28;19928;-71
2023/05/19 07:34:18;;;;;;;;;;;;;;;19.16;43.74;102695.59;5055238;28;20348;-69
2023/05/19 07:36:43;;;;;;;;;;;;;;;19.17;43.69;102701.84;5059393;28;19916;-71
2023/05/19 07:39:09;;;;;;;;;;;;;;;19.17;43.74;102705.41;5057375;28;19917;-71
2023/05/19 07:41:34;;;;;;;;;;;;;;;19.19;43.80;102707.97;5055166;28;19943;-71
2023/05/19 07:43:59;;;;;;;;;;;;;;;19.19;43.67;102700.72;5043211;28;20002;-71
2023/05/19 07:46:24;;;;;;;;;;;;;;;19.20;43.71;102699.75;5054042;28;19916;-71
2023/05/19 07:48:50;;;;;;;;;;;;;;;19.20;43.50;102701.59;5042483;28;19913;-73
2023/05/19 07:51:15;;;;;;;;;;;;;;;19.22;43.62;102705.03;5050896;28;20026;-74
2023/05/19 07:53:40;;;;;;;;;;;;;;;19.22;43.51;102703.19;5057132;28;19985;-72
2023/05/19 07:56:05;;;;;;;;;;;;;;;19.24;43.64;102703.03;5045048;28;19920;-72
2023/05/19 07:58:31;;;;;;;;;;;;;;;19.26;43.87;102705.63;5051108;28;19916;-70
2023/05/19 08:00:59;;;;;;;;;;;;;;;19.26;43.94;102701.09;5054323;28;19917;-71
2023/05/19 08:03:25;;;;;;;;;;;;;;;19.27;43.99;102688.47;5031482;28;19924;-71
2023/05/19 08:05:50;;;;;;;;;;;;;;;19.29;43.98;102695.44;5043346;28;19920;-71
2023/05/19 08:08:15;;;;;;;;;;;;;;;19.30;44.24;102699.00;5056939;28;19917;-71
2023/05/19 08:10:41;;;;;;;;;;;;;;;19.30;44.18;102686.38;5056918;28;19924;-70
2023/05/19 08:13:08;;;;;;;;;;;;;;;19.31;44.16;102685.38;5055076;28;19921;-70
2023/05/19 08:15:33;;;;;;;;;;;;;;;19.32;44.37;102681.69;5060310;28;19943;-70
2023/05/19 08:17:59;;;;;;;;;;;;;;;19.33;44.20;102682.56;5055801;28;19912;-70
2023/05/19 08:20:24;;;;;;;;;;;;;;;19.33;44.14;102671.78;5057362;28;19921;-70
2023/05/19 08:22:49;;;;;;;;;;;;;;;19.33;44.21;102666.38;5055481;28;19913;-70
2023/05/19 08:25:14;;;;;;;;;;;;;;;19.33;44.25;102672.63;5035289;28;19916;-70
2023/05/19 08:27:39;;;;;;;;;;;;;;;19.33;44.38;102663.69;5059271;28;19921;-70
2023/05/19 08:30:05;;;;;;;;;;;;;;;19.33;44.65;102667.25;5052189;28;19987;-71
2023/05/19 08:32:30;;;;;;;;;;;;;;;19.34;44.31;102665.38;5053446;28;20404;-70
2023/05/19 08:34:55;;;;;;;;;;;;;;;19.33;44.25;102661.00;5052032;28;19947;-72
2023/05/19 08:37:21;;;;;;;;;;;;;;;19.32;44.46;102662.81;5053205;28;19916;-71
2023/05/19 08:39:46;;;;;;;;;;;;;;;19.32;44.68;102665.50;5053428;28;19916;-71
2023/05/19 08:42:11;;;;;;;;;;;;;;;19.32;44.77;102661.94;5058449;28;19917;-71
2023/05/19 08:44:36;;;;;;;;;;;;;;;19.32;44.43;102653.88;5056490;28;19920;-71
2023/05/19 08:47:02;;;;;;;;;;;;;;;19.32;44.63;102645.78;5052337;28;19920;-71
2023/05/19 08:49:27;;;;;;;;;;;;;;;19.32;44.83;102643.06;5058385;28;19924;-73
2023/05/19 08:51:59;;;;;;;;;;;;;;;19.32;44.80;102643.94;5052150;28;19913;-71
2023/05/19 08:54:25;;;;;;;;;;;;;;;19.33;44.86;102640.28;5050486;28;19913;-71
2023/05/19 08:56:50;;;;;;;;;;;;;;;19.33;44.72;102647.50;5042328;28;19983;-72
2023/05/19 08:59:15;;;;;;;;;;;;;;;19.33;44.44;102645.66;5053372;28;19921;-71
2023/05/19 09:01:44;;;;;;;;;;;;;;;19.33;44.55;102642.97;5051717;28;19927;-71
2023/05/19 09:04:10;;;;;;;;;;;;;;;19.34;44.41;102635.72;5051934;28;20289;-71
2023/05/19 09:06:35;;;;;;;;;;;;;;;19.34;44.50;102639.28;5050334;28;19917;-72
2023/05/19 09:09:00;;;;;;;;;;;;;;;19.35;44.46;102638.28;5057039;28;19921;-72
2023/05/19 09:11:25;;;;;;;;;;;;;;;19.35;44.54;102626.63;5056047;28;19932;-73
2023/05/19 09:13:51;;;;;;;;;;;;;;;19.37;44.37;102635.44;5051029;28;19929;-72
2023/05/19 09:16:16;;;;;;;;;;;;;;;19.37;44.44;102633.63;5037014;28;19913;-73
2023/05/19 09:18:52;;;;;;;;;;;;;;;19.38;44.60;102627.25;5054067;28;19917;-71
2023/05/19 09:21:17;;;;;;;;;;;;;;;19.39;44.59;102637.03;5055360;28;19931;-72
2023/05/19 09:23:43;;;;;;;;;;;;;;;19.41;44.37;102634.19;5054776;28;20266;-72
2023/05/19 09:26:09;;;;;;;;;;;;;;;19.42;44.43;102638.63;5034720;28;19917;-72
2023/05/19 09:28:35;;;;;;;;;;;;;;;19.42;44.60;102626.00;5050364;28;19921;-72
2023/05/19 09:31:07;;;;;;;;;;;;;;;19.43;44.45;102632.25;5052322;28;19921;-72
2023/05/19 09:33:33;;;;;;;;;;;;;;;19.43;44.80;102625.00;5049823;28;19941;-72
2023/05/19 09:35:58;;;;;;;;;;;;;;;19.43;44.82;102630.41;5040819;28;19921;-72
2023/05/19 09:38:25;;;;;;;;;;;;;;;19.44;44.50;102623.16;5051579;28;19919;-72
2023/05/19 09:40:51;;;;;;;;;;;;;;;19.46;44.71;102613.09;5041368;28;19927;-73
2023/05/19 09:43:16;;;;;;;;;;;;;;;19.45;44.68;102620.34;5036078;28;19995;-72
2023/05/19 09:45:41;;;;;;;;;;;;;;;19.47;44.78;102609.41;5042602;28;19917;-71
2023/05/19 09:48:06;;;;;;;;;;;;;;;19.47;44.86;102606.72;5055656;28;19924;-72
2023/05/19 09:50:32;;;;;;;;;;;;;;;19.49;44.55;102604.72;5053421;28;19917;-72
2023/05/19 09:52:57;;;;;;;;;;;;;;;19.51;44.75;102604.63;5048812;28;19921;-72
2023/05/19 09:55:24;;;;;;;;;;;;;;;19.52;44.53;102615.28;5034333;28;19975;-73
2023/05/19 09:57:51;;;;;;;;;;;;;;;19.51;44.90;102608.16;5018558;28;19948;-72
2023/05/19 10:00:16;;;;;;;;;;;;;;;19.54;44.93;102628.63;5032950;28;20352;-73
2023/05/19 10:02:45;;;;;;;;;;;;;;;19.54;44.67;102618.72;5037632;28;19980;-72
2023/05/19 10:05:21;;;;;;;;;;;;;;;19.55;44.82;102614.16;5020772;28;19921;-71
2023/05/19 10:07:47;;;;;;;;;;;;;;;19.56;44.73;102616.72;5045055;28;19920;-72
2023/05/19 10:10:12;;;;;;;;;;;;;;;19.57;44.80;102602.22;5039065;28;19917;-71
2023/05/19 10:12:38;;;;;;;;;;;;;;;19.58;44.80;102606.66;5039082;28;19936;-72
2023/05/19 10:15:04;;;;;;;;;;;;;;;19.59;45.09;102602.13;5054966;28;19921;-73
2023/05/19 10:17:29;;;;;;;;;;;;;;;19.60;44.99;102601.97;5035254;28;19916;-72
2023/05/19 10:19:54;;;;;;;;;;;;;;;19.62;45.02;102604.56;5053260;28;19984;-74
2023/05/19 10:22:20;;;;;;;;;;;;;;;19.62;45.17;102597.31;5046868;28;20106;-72
2023/05/19 10:24:45;;;;;;;;;;;;;;;19.63;45.08;102598.19;5040035;28;20266;-73
2023/05/19 10:27:11;;;;;;;;;;;;;;;19.63;44.83;102599.06;5043397;28;19917;-73
2023/05/19 10:29:38;;;;;;;;;;;;;;;19.64;45.30;102589.13;5030706;28;19924;-73
2023/05/19 10:32:05;;;;;;;;;;;;;;;19.66;44.99;102584.44;5020898;28;19948;-71
2023/05/19 10:34:42;;;;;;;;;;;;;;;19.67;45.27;102578.91;5040615;28;19921;-70
2023/05/19 10:37:37;;;;;;;;;;;;;;;19.67;45.08;102578.91;5037945;28;19924;-71
2023/05/19 10:40:07;;;;;;;;;;;;;;;19.68;44.85;102571.66;4991056;28;19918;-71
2023/05/19 10:42:35;;;;;;;;;;;;;;;19.68;44.78;102569.81;4984560;28;19992;-71
2023/05/19 10:45:00;;;;;;;;;;;;;;;19.70;44.75;102554.34;4973672;28;19918;-72
2023/05/19 10:47:26;;;;;;;;;;;;;;;19.72;44.80;102565.88;4987966;28;20037;-74
2023/05/19 10:49:52;;;;;;;;;;;;;;;19.73;44.80;102559.47;4987417;28;19928;-70
2023/05/19 10:52:18;;;;;;;;;;;;;;;19.75;44.76;102564.72;4986987;28;19918;-73
2023/05/19 10:54:45;;;;;;;;;;;;;;;19.77;43.73;102565.47;4975924;28;19949;-75
2023/05/19 10:57:16;;;;;;;;;;;;;;;19.79;43.79;102563.47;4989269;28;19929;-71
2023/05/19 10:59:43;;;;;;;;;;;;;;;19.80;44.46;102567.91;4970728;28;19973;-71
2023/05/19 11:02:08;;;;;;;;;;;;;;;19.81;44.22;102571.47;4971175;28;19929;-70
2023/05/19 11:04:57;;;;;;;;;;;;;;;19.82;44.27;102563.22;4979060;28;19914;-71
2023/05/19 11:07:23;;;;;;;;;;;;;;;19.83;44.48;102564.06;4993249;28;19922;-71
2023/05/19 11:09:51;;;;;;;;;;;;;;;19.83;44.15;102567.63;4993246;28;19965;-71
2023/05/19 11:12:20;;;;;;;;;;;;;;;19.86;44.25;102566.50;4978176;28;19960;-75
2023/05/19 11:14:46;;;;;;;;;;;;;;;19.86;44.44;102556.56;4983746;28;20277;-73
2023/05/19 11:17:14;;;;;;;;;;;;;;;19.88;44.79;102561.81;5034453;28;19942;-71
2023/05/19 11:19:41;;;;;;;;;;;;;;;19.88;44.71;102546.50;5049916;28;19917;-69
2023/05/19 11:22:10;;;;;;;;;;;;;;;19.89;44.59;102559.00;5039021;28;19949;-70
2023/05/19 11:24:35;;;;;;;;;;;;;;;19.90;44.42;102560.69;5034895;28;19921;-69
2023/05/19 11:27:19;;;;;;;;;;;;;;;19.91;44.40;102557.00;5054825;28;19975;-69
2023/05/19 11:29:45;;;;;;;;;;;;;;;19.92;44.70;102560.56;5051181;28;19920;-69
2023/05/19 11:32:10;;;;;;;;;;;;;;;19.93;44.40;102559.59;5039348;28;19920;-69
2023/05/19 11:34:36;;;;;;;;;;;;;;;19.94;44.28;102559.44;5043988;28;19956;-71
2023/05/19 11:37:01;;;;;;;;;;;;;;;19.97;44.48;102552.94;5057128;28;19960;-71
2023/05/19 11:39:26;;;;;;;;;;;;;;;19.97;44.75;102551.06;5056736;28;19917;-71
2023/05/19 11:41:54;;;;;;;;;;;;;;;20.00;44.52;102547.22;5052451;28;20377;-73
2023/05/19 11:44:19;;;;;;;;;;;;;;;20.02;44.48;102547.97;5040929;28;19921;-72
2023/05/19 11:46:44;;;;;;;;;;;;;;;20.05;44.54;102547.69;5051937;28;19924;-70
2023/05/19 11:49:09;;;;;;;;;;;;;;;20.08;44.65;102546.56;5051073;28;19995;-68
2023/05/19 11:51:35;;;;;;;;;;;;;;;20.08;44.61;102544.72;5061069;28;19971;-68
2023/05/19 11:54:01;;;;;;;;;;;;;;;20.11;44.66;102532.78;5055507;28;20358;-68
2023/05/19 11:56:29;;;;;;;;;;;;;;;20.12;44.82;102529.94;5055353;28;20043;-68
2023/05/19 11:58:54;;;;;;;;;;;;;;;20.13;44.88;102536.19;5020809;28;20374;-68
2023/05/19 12:01:24;;;;;;;;;;;;;;;20.13;44.89;102531.63;5040364;28;19996;-68
2023/05/19 12:03:49;;;;;;;;;;;;;;;20.15;44.88;102528.81;5059654;28;19987;-68
2023/05/19 12:06:16;;;;;;;;;;;;;;;20.16;44.94;102531.38;5041926;28;19929;-68
2023/05/19 12:08:41;;;;;;;;;;;;;;;20.19;44.98;102525.72;5052519;28;20004;-68
2023/05/19 12:11:06;;;;;;;;;;;;;;;20.20;44.97;102526.56;5021227;28;19921;-68
2023/05/19 12:13:32;;;;;;;;;;;;;;;20.21;44.97;102518.31;5051143;28;19980;-68
2023/05/19 12:16:00;;;;;;;;;;;;;;;20.22;44.84;102528.13;5043424;28;20551;-68
2023/05/19 12:18:27;;;;;;;;;;;;;;;20.23;44.75;102519.03;5040124;28;19921;-68
2023/05/19 12:20:53;;;;;;;;;;;;;;;20.24;44.68;102517.19;5050534;28;19925;-67
2023/05/19 12:23:20;;;;;;;;;;;;;;;20.27;44.92;102516.06;5049556;28;20409;-73
2023/05/19 12:25:45;;;;;;;;;;;;;;;20.28;45.16;102517.78;5053389;28;19929;-72
2023/05/19 12:28:10;;;;;;;;;;;;;;;20.29;44.93;102516.78;5058244;28;19939;-72
2023/05/19 12:30:36;;;;;;;;;;;;;;;20.30;45.04;102511.22;5041206;28;19920;-72